Terminal Aerodrome Forecast
Issued by NWS Tampa Bay Area, FL

Home | Current Version | Previous Version | Text Only | Print | Product List | Glossary Off
Versions: 1 2 3 4 5 6 7 8 9 10 11 12 13 14

000
FTUS42 KTBW 261559 AAA
TAFSRQ
TAF AMD
KSRQ 261559Z 2616/2712 13012KT P6SM SCT008 SCT040
     FM262000 18010G15KT P6SM VCTS SCT050CB BKN250
     FM262300 VRB06KT P6SM VCTS SCT040CB BKN250
     FM270200 07005KT P6SM SCT040 BKN250=

USA.gov is the U.S. government's official web portal to all federal, state and local government web resources and services.